Time;durP1;ratioP1;P1;durP2;ratioP2;P2;SDS_P1;SDS_P2;PMS_P1;PMS_P2;Temp;Humidity;BMP_temperature;BMP_pressure;BME280_temperature;BME280_humidity;BME280_pressure;Samples;Min_cycle;Max_cycle;Signal;HPM_P1;HPM_P2
2022/01/28 00:05:32;;;;;;;;;69.33;55.33;;;;;1.77;57.33;101933.34;146603;614;46020;-75
2022/01/28 00:08:25;;;;;;;;;72.33;54.00;;;;;1.76;57.54;101928.97;146602;633;45917;-75
2022/01/28 00:11:17;;;;;;;;;72.33;58.00;;;;;1.73;57.55;101929.56;146604;609;46008;-75
2022/01/28 00:14:28;;;;;;;;;73.33;56.00;;;;;1.73;58.00;101928.66;146604;591;46016;-75
2022/01/28 00:17:58;;;;;;;;;70.33;56.33;;;;;1.65;58.83;101925.25;146611;697;46021;-75
2022/01/28 00:40:10;;;;;;;;;54.75;41.00;;;;;1.23;58.76;101914.84;146602;583;46016;-73
2022/01/28 00:43:03;;;;;;;;;52.75;43.00;;;;;1.23;59.36;101929.28;146606;605;45033;-74
2022/01/28 00:45:56;;;;;;;;;50.75;40.75;;;;;1.16;59.27;101917.50;146599;658;46016;-75
2022/01/28 00:48:48;;;;;;;;;53.25;38.50;;;;;1.11;59.41;101909.34;146601;707;45915;-75
2022/01/28 00:51:40;;;;;;;;;52.75;41.75;;;;;1.08;58.20;101910.66;146598;575;46016;-76
2022/01/28 00:54:33;;;;;;;;;52.75;40.75;;;;;1.05;58.28;101903.56;146602;607;46020;-75
2022/01/28 00:57:25;;;;;;;;;48.50;40.75;;;;;-0.15;58.53;101695.81;146599;569;46016;-74
2022/01/28 01:00:17;;;;;;;;;51.00;40.50;;;;;1.01;59.46;101904.00;146600;582;46026;-73
2022/01/28 01:03:09;;;;;;;;;51.25;41.00;;;;;0.99;58.88;101904.56;146598;584;46010;-73
2022/01/28 01:06:02;;;;;;;;;56.50;43.00;;;;;0.93;59.49;101894.59;146601;581;46020;-74
2022/01/28 01:08:54;;;;;;;;;55.50;41.75;;;;;0.95;59.81;101903.31;146598;618;46011;-75
2022/01/28 01:11:46;;;;;;;;;59.00;44.75;;;;;0.94;58.77;101895.50;146601;577;46020;-75
2022/01/28 01:14:39;;;;;;;;;54.25;42.75;;;;;0.92;59.85;101895.34;146598;595;46017;-76
2022/01/28 01:17:42;;;;;;;;;47.25;38.00;;;;;0.89;59.33;101898.47;146602;588;46008;-76
2022/01/28 01:20:55;;;;;;;;;42.75;36.50;;;;;0.90;59.38;101894.25;146599;569;47010;-80
2022/01/28 01:23:52;;;;;;;;;36.00;35.00;;;;;0.92;59.34;101891.13;146601;602;46021;-76
2022/01/28 01:26:44;;;;;;;;;44.75;37.50;;;;;0.96;59.77;101881.25;146598;565;46010;-75
2022/01/28 01:29:41;;;;;;;;;51.75;41.75;;;;;0.97;59.54;101875.41;146604;576;46009;-74
2022/01/28 01:32:34;;;;;;;;;48.75;38.50;;;;;0.95;58.85;101874.34;146597;632;46016;-75
2022/01/28 01:35:26;;;;;;;;;45.75;36.50;;;;;0.93;59.08;101876.69;146599;595;46008;-75
2022/01/28 01:38:23;;;;;;;;;40.75;33.00;;;;;0.90;58.93;101874.75;146598;599;46012;-74
2022/01/28 01:41:21;;;;;;;;;37.75;28.75;;;;;0.86;59.09;101869.12;146598;575;46008;-74
2022/01/28 01:44:26;;;;;;;;;112.25;95.25;;;;;0.83;58.90;101868.81;146604;628;46917;-74
2022/01/28 01:53:40;;;;;;;;;52.00;39.50;;;;;0.78;58.33;101849.50;146606;598;46008;-75
2022/01/28 01:56:33;;;;;;;;;44.25;35.75;;;;;0.76;59.04;101853.56;146600;571;46016;-73
2022/01/28 01:59:26;;;;;;;;;51.75;40.00;;;;;0.71;58.83;101854.72;146605;566;46008;-72
2022/01/28 02:02:18;;;;;;;;;50.25;38.25;;;;;0.65;59.93;101853.31;146604;598;46016;-77
2022/01/28 02:05:11;;;;;;;;;53.75;43.00;;;;;0.62;59.31;101852.06;146606;575;45915;-76
2022/01/28 02:08:06;;;;;;;;;56.00;47.00;;;;;0.62;57.98;101855.53;146602;606;46016;-81
2022/01/28 02:10:59;;;;;;;;;48.50;41.00;;;;;0.66;58.72;101856.78;146604;581;46008;-79
2022/01/28 02:13:55;;;;;;;;;42.00;36.00;;;;;0.68;58.15;101851.06;146601;645;46016;-78
2022/01/28 02:16:47;;;;;;;;;36.25;31.75;;;;;0.67;59.97;101853.47;146602;577;46020;-77
2022/01/28 02:19:40;;;;;;;;;43.50;35.50;;;;;0.59;58.91;101842.44;146601;615;46016;-77
2022/01/28 02:22:32;;;;;;;;;46.00;36.00;;;;;0.61;59.41;101842.59;146609;713;46008;-78
2022/01/28 02:25:30;;;;;;;;;45.00;37.25;;;;;0.61;58.65;101834.94;146599;632;46917;-77
2022/01/28 02:28:23;;;;;;;;;35.50;30.75;;;;;0.56;60.95;101823.31;146602;578;46027;-75
2022/01/28 02:31:22;;;;;;;;;39.00;31.25;;;;;0.52;59.08;101821.19;146602;564;46016;-75
2022/01/28 02:34:15;;;;;;;;;28.75;24.75;;;;;0.50;60.75;101820.09;146605;596;46020;-80
2022/01/28 02:37:08;;;;;;;;;35.50;23.50;;;;;0.44;61.11;101811.06;146601;595;46012;-77
2022/01/28 02:40:00;;;;;;;;;38.00;32.25;;;;;0.42;59.97;101809.06;146602;641;46008;-80
2022/01/28 02:43:03;;;;;;;;;35.75;29.50;;;;;0.44;60.17;101810.16;146603;582;46010;-78
2022/01/28 02:46:03;;;;;;;;;37.25;31.50;;;;;0.42;59.50;101802.31;146602;565;46020;-72
2022/01/28 02:49:08;;;;;;;;;45.00;37.25;;;;;0.40;60.30;101806.34;146599;615;46016;-76
2022/01/28 02:52:01;;;;;;;;;41.75;34.75;;;;;0.38;59.23;101807.84;146600;587;46021;-77
2022/01/28 02:54:54;;;;;;;;;28.00;23.25;;;;;0.37;60.06;101800.91;146599;563;46010;-77
2022/01/28 02:58:02;;;;;;;;;34.50;30.25;;;;;0.37;60.57;101806.00;146601;620;46021;-78
2022/01/28 03:00:54;;;;;;;;;33.50;28.50;;;;;0.32;60.61;101808.81;146599;570;46010;-78
2022/01/28 03:03:48;;;;;;;;;32.75;26.50;;;;;0.27;61.79;101809.97;146601;565;46008;-78
2022/01/28 03:06:40;;;;;;;;;26.00;21.00;;;;;0.26;60.32;101805.59;146600;597;46016;-78
2022/01/28 03:16:21;;;;;;;;;21.75;20.50;;;;;0.25;60.92;101794.50;146601;585;46020;-75
2022/01/28 03:19:17;;;;;;;;;27.50;25.50;;;;;0.30;60.65;101801.00;146598;581;47010;-76
2022/01/28 03:22:10;;;;;;;;;32.75;26.50;;;;;0.34;60.09;101799.66;146604;624;46008;-76
2022/01/28 03:25:02;;;;;;;;;32.00;23.25;;;;;0.34;59.69;101787.81;146600;575;45917;-76
2022/01/28 03:27:57;;;;;;;;;78.00;59.67;;;;;0.33;60.08;101793.66;146603;573;46020;-74
2022/01/28 03:30:50;;;;;;;;;95.33;76.00;;;;;0.32;59.17;101789.31;146601;601;46016;-75
2022/01/28 03:33:42;;;;;;;;;76.33;59.33;;;;;0.39;59.38;101784.12;146607;630;46008;-71
2022/01/28 03:36:34;;;;;;;;;49.00;39.50;;;;;0.39;59.82;101789.22;146605;611;46016;-71
2022/01/28 03:39:26;;;;;;;;;67.33;54.00;;;;;0.38;59.24;101792.53;146602;652;47008;-73
2022/01/28 03:42:18;;;;;;;;;25.25;23.00;;;;;0.33;59.45;101791.12;146598;570;47013;-73
2022/01/28 03:45:11;;;;;;;;;23.75;22.00;;;;;0.30;60.36;101783.13;146602;569;46008;-73
2022/01/28 03:48:04;;;;;;;;;26.25;23.00;;;;;0.25;60.98;101780.81;146602;675;47012;-78
2022/01/28 03:50:56;;;;;;;;;30.25;25.00;;;;;0.20;60.27;101785.44;146604;590;46008;-79
2022/01/28 03:53:48;;;;;;;;;29.50;28.00;;;;;0.15;60.42;101777.25;146602;613;46010;-79
2022/01/28 03:56:40;;;;;;;;;31.50;26.25;;;;;0.15;60.34;101778.91;146606;597;45915;-79
2022/01/28 03:59:33;;;;;;;;;38.75;28.25;;;;;0.14;60.63;101780.56;146602;598;46016;-79
2022/01/28 04:02:28;;;;;;;;;32.75;29.00;;;;;0.13;60.70;101777.84;146605;613;47008;-80
2022/01/28 04:12:01;;;;;;;;;29.00;26.00;;;;;0.06;62.24;101768.59;146605;587;45018;-80
2022/01/28 04:18:18;;;;;;;;;34.25;28.25;;;;;0.21;61.85;101771.94;146603;573;46016;-77
2022/01/28 04:21:10;;;;;;;;;35.00;26.50;;;;;0.26;62.13;101764.78;146606;631;47009;-78
2022/01/28 04:24:02;;;;;;;;;31.25;28.25;;;;;0.32;60.18;101768.00;146600;573;46016;-76
2022/01/28 04:26:54;;;;;;;;;28.50;26.25;;;;;0.39;60.11;101760.28;146606;574;46008;-77
2022/01/28 04:29:47;;;;;;;;;46.50;34.00;;;;;0.41;59.55;101756.25;146600;700;46017;-75
2022/01/28 04:32:40;;;;;;;;;36.75;32.00;;;;;0.38;60.29;101754.25;146605;657;46008;-76
2022/01/28 04:35:32;;;;;;;;;36.75;34.00;;;;;0.34;59.90;101752.09;146604;741;46011;-80
2022/01/28 04:38:39;;;;;;;;;37.50;30.25;;;;;0.30;60.57;101757.62;146604;648;46008;-76
2022/01/28 04:41:50;;;;;;;;;39.25;30.50;;;;;0.24;61.20;101756.97;146602;602;46016;-76
2022/01/28 04:48:15;;;;;;;;;55.25;40.25;;;;;0.17;60.35;101772.34;146599;631;46016;-74
2022/01/28 05:07:46;;;;;;;;;75.00;55.00;;;;;0.16;60.41;101768.87;146599;622;46016;-75
2022/01/28 05:24:14;;;;;;;;;38.50;33.25;;;;;0.08;62.28;101751.84;146605;576;46020;-75
2022/01/28 05:27:07;;;;;;;;;53.25;40.75;;;;;0.11;61.19;101764.03;146600;618;47010;-74
2022/01/28 05:29:59;;;;;;;;;54.50;42.00;;;;;0.09;60.84;101768.94;146605;725;46008;-75
2022/01/28 05:32:52;;;;;;;;;65.50;50.00;;;;;0.08;60.63;101766.25;146600;646;46016;-75
2022/01/28 05:35:44;;;;;;;;;69.00;53.25;;;;;0.07;60.49;101760.25;146607;739;46008;-81
2022/01/28 05:38:36;;;;;;;;;55.75;40.25;;;;;0.07;61.82;101761.88;146602;565;46030;-74
2022/01/28 05:41:29;;;;;;;;;74.67;55.67;;;;;0.06;61.90;101763.50;146604;566;46020;-74
2022/01/28 05:44:22;;;;;;;;;65.00;52.67;;;;;0.06;61.24;101773.69;146604;636;46016;-74
2022/01/28 05:47:16;;;;;;;;;66.75;52.75;;;;;0.04;61.58;101775.19;146607;593;46020;-74
2022/01/28 05:50:09;;;;;;;;;62.75;44.75;;;;;0.03;61.05;101775.00;146600;622;46016;-75
2022/01/28 05:53:04;;;;;;;;;42.00;36.00;;;;;0.03;61.09;101775.00;146607;616;46008;-74
2022/01/28 05:55:56;;;;;;;;;54.00;41.00;;;;;0.01;61.37;101769.75;146603;572;46010;-73
2022/01/28 05:58:48;;;;;;;;;47.50;37.50;;;;;-0.02;61.27;101765.22;146610;591;46008;-80
2022/01/28 06:01:40;;;;;;;;;45.75;38.50;;;;;0.01;61.72;101767.22;146601;589;46016;-83
2022/01/28 06:04:35;;;;;;;;;56.25;47.25;;;;;0.05;60.13;101771.00;146601;643;46021;-78
2022/01/28 06:07:28;;;;;;;;;76.67;62.00;;;;;0.09;61.72;101768.94;146604;595;46016;-76
2022/01/28 06:10:20;;;;;;;;;63.25;51.00;;;;;0.14;60.73;101765.25;146609;593;46008;-77
2022/01/28 06:13:14;;;;;;;;;86.33;64.67;;;;;0.19;60.49;101760.69;146602;570;46012;-76
2022/01/28 06:16:06;;;;;;;;;75.00;60.00;;;;;0.38;61.36;101761.03;146613;598;46008;-77
2022/01/28 06:18:59;;;;;;;;;59.75;46.25;;;;;0.90;59.99;101756.34;146608;572;46016;-75
2022/01/28 06:21:51;;;;;;;;;60.50;44.25;;;;;1.97;59.42;101753.81;146605;606;46020;-77
2022/01/28 06:24:43;;;;;;;;;60.00;47.00;;;;;3.26;57.17;101749.56;146602;569;47010;-73
2022/01/28 06:27:36;;;;;;;;;66.25;49.50;;;;;4.58;53.52;101755.16;146603;654;46021;-73
2022/01/28 06:30:28;;;;;;;;;61.00;46.00;;;;;5.78;51.20;101747.78;146601;636;47010;-74
2022/01/28 06:33:20;;;;;;;;;60.25;47.50;;;;;6.81;49.22;101739.34;146605;579;46020;-78
2022/01/28 06:36:13;;;;;;;;;71.25;56.00;;;;;7.62;46.03;101747.59;146601;570;46010;-76
2022/01/28 06:39:05;;;;;;;;;63.00;50.00;;;;;8.15;44.98;101730.22;146604;575;46008;-77
2022/01/28 06:41:57;;;;;;;;;54.50;45.25;;;;;8.55;44.03;101735.88;146601;565;46010;-77
2022/01/28 06:44:49;;;;;;;;;54.75;42.50;;;;;8.78;43.72;101732.44;146605;726;46020;-77
2022/01/28 06:47:42;;;;;;;;;54.00;41.00;;;;;9.17;43.13;101733.56;146600;598;46016;-78
2022/01/28 06:50:34;;;;;;;;;49.50;37.75;;;;;9.57;42.90;101733.88;146602;665;46026;-78
2022/01/28 06:53:27;;;;;;;;;47.50;36.25;;;;;10.11;42.30;101736.81;146601;569;46016;-78
2022/01/28 06:56:19;;;;;;;;;52.00;38.50;;;;;10.55;41.69;101733.81;146603;582;46021;-79
2022/01/28 06:59:11;;;;;;;;;61.50;45.75;;;;;10.92;41.57;101735.37;146601;576;46016;-79
2022/01/28 07:02:03;;;;;;;;;78.00;59.67;;;;;11.43;39.34;101737.84;146607;576;46020;-79
2022/01/28 07:04:56;;;;;;;;;52.25;41.50;;;;;11.80;38.44;101738.44;146604;632;46012;-78
2022/01/28 07:07:48;;;;;;;;;66.50;52.25;;;;;11.81;38.54;101741.97;146600;602;46020;-78
2022/01/28 07:10:40;;;;;;;;;57.50;44.75;;;;;11.68;38.90;101729.00;146600;583;46016;-80
2022/01/28 07:13:33;;;;;;;;;52.50;42.00;;;;;11.52;38.21;101741.00;146604;602;46020;-74
2022/01/28 07:16:25;;;;;;;;;73.50;55.25;;;;;11.31;38.72;101734.47;146603;627;46024;-74
2022/01/28 07:19:17;;;;;;;;;52.00;42.00;;;;;11.21;38.63;101732.94;146606;573;46008;-78
2022/01/28 07:22:11;;;;;;;;;83.67;68.67;;;;;11.19;38.46;101728.50;146601;609;47010;-78
2022/01/28 07:25:03;;;;;;;;;85.00;68.00;;;;;11.20;38.85;101727.69;146605;657;46020;-84
2022/01/28 07:27:55;;;;;;;;;55.25;43.00;;;;;11.16;38.12;101721.41;146600;602;46016;-76
2022/01/28 07:30:47;;;;;;;;;63.00;47.75;;;;;10.99;37.93;101709.00;146600;580;46020;-76
2022/01/28 07:33:39;;;;;;;;;44.50;36.75;;;;;10.77;37.67;101712.78;146600;584;46017;-78
2022/01/28 07:36:32;;;;;;;;;42.75;33.25;;;;;10.53;39.20;101705.97;146602;581;47008;-77
2022/01/28 07:39:24;;;;;;;;;126.25;111.25;;;;;10.38;38.84;101698.06;146605;598;46017;-76
2022/01/28 07:42:17;;;;;;;;;35.00;32.00;;;;;10.23;40.97;101684.94;146610;607;46008;-75
2022/01/28 07:45:11;;;;;;;;;39.75;34.25;;;;;10.28;43.06;101688.78;146603;615;46016;-75
2022/01/28 07:48:03;;;;;;;;;34.75;30.00;;;;;10.57;45.66;101677.75;146605;595;46021;-74
2022/01/28 07:50:56;;;;;;;;;43.75;36.25;;;;;10.89;41.12;101668.59;146601;648;46016;-74
2022/01/28 07:53:48;;;;;;;;;34.50;31.00;;;;;11.06;42.56;101673.19;146606;612;45034;-74
2022/01/28 07:56:42;;;;;;;;;45.25;37.00;;;;;11.25;40.02;101669.16;146601;709;46010;-76
2022/01/28 07:59:35;;;;;;;;;48.75;39.50;;;;;11.40;40.34;101671.81;146606;628;45020;-76
2022/01/28 08:02:27;;;;;;;;;47.00;35.00;;;;;11.39;41.00;101664.84;146599;604;46025;-77
2022/01/28 08:05:19;;;;;;;;;46.25;36.25;;;;;11.44;40.58;101669.53;146606;582;47008;-77
2022/01/28 08:08:13;;;;;;;;;42.25;36.00;;;;;11.54;42.08;101673.59;146601;600;46026;-73
2022/01/28 08:11:05;;;;;;;;;42.50;35.00;;;;;11.73;40.67;101667.81;146605;589;46021;-71
2022/01/28 08:13:58;;;;;;;;;58.50;46.25;;;;;11.86;39.90;101670.41;146602;665;47012;-72
2022/01/28 08:16:50;;;;;;;;;52.25;40.50;;;;;11.91;39.51;101678.50;146606;585;46021;-72
2022/01/28 08:19:42;;;;;;;;;58.25;46.00;;;;;11.94;39.53;101676.97;146603;598;46016;-71
2022/01/28 08:22:34;;;;;;;;;63.25;48.75;;;;;11.95;39.38;101680.47;146606;594;46020;-71
2022/01/28 08:25:28;;;;;;;;;60.50;46.00;;;;;11.96;40.12;101675.38;146600;591;46016;-71
2022/01/28 08:28:20;;;;;;;;;60.50;46.50;;;;;12.02;39.52;101673.16;146606;636;46028;-72
2022/01/28 08:31:13;;;;;;;;;61.00;48.50;;;;;12.07;39.62;101669.91;146600;581;47010;-71
2022/01/28 08:34:05;;;;;;;;;56.25;43.50;;;;;12.12;39.41;101676.28;146601;576;46012;-72
2022/01/28 08:36:59;;;;;;;;;58.75;47.25;;;;;12.21;39.85;101664.75;146602;588;46016;-71
2022/01/28 08:39:52;;;;;;;;;57.00;44.25;;;;;12.35;39.47;101662.06;146604;564;46012;-71
2022/01/28 08:42:44;;;;;;;;;59.25;45.00;;;;;12.47;39.47;101658.47;146600;578;46010;-71
2022/01/28 08:45:37;;;;;;;;;52.50;42.00;;;;;12.64;39.36;101654.22;146600;571;46020;-72
2022/01/28 08:48:29;;;;;;;;;37.50;31.75;;;;;12.73;38.68;101651.25;146596;601;46017;-71
2022/01/28 08:51:21;;;;;;;;;41.75;32.00;;;;;12.81;38.19;101656.94;146601;635;46020;-70
2022/01/28 08:54:14;;;;;;;;;33.00;29.00;;;;;12.80;37.57;101658.59;146597;564;46917;-71
2022/01/28 08:57:06;;;;;;;;;28.75;28.25;;;;;12.68;37.05;101652.72;146602;577;46020;-69
2022/01/28 08:59:58;;;;;;;;;32.00;27.25;;;;;12.54;37.67;101658.81;146598;614;46016;-71
2022/01/28 09:02:50;;;;;;;;;29.50;28.00;;;;;12.39;38.54;101649.31;146597;736;47008;-71
2022/01/28 09:05:43;;;;;;;;;27.25;24.75;;;;;12.36;37.88;101656.94;146596;592;46016;-71
2022/01/28 09:08:35;;;;;;;;;28.75;21.75;;;;;12.28;37.60;101646.91;146599;569;46020;-71
2022/01/28 09:11:34;;;;;;;;;33.50;30.50;;;;;12.20;38.37;101649.94;146595;608;46016;-71
2022/01/28 09:14:26;;;;;;;;;26.50;24.75;;;;;12.24;38.95;101644.13;146599;559;46012;-70
2022/01/28 09:17:20;;;;;;;;;47.75;37.25;;;;;12.41;38.90;101647.69;146599;565;46917;-72
2022/01/28 09:20:12;;;;;;;;;41.00;34.00;;;;;12.66;38.26;101643.94;146597;620;47008;-70
2022/01/28 09:23:06;;;;;;;;;37.50;32.75;;;;;12.86;38.84;101648.53;146597;630;46017;-71
2022/01/28 09:25:58;;;;;;;;;41.75;34.75;;;;;12.99;37.40;101644.97;146600;583;46020;-71
2022/01/28 09:28:50;;;;;;;;;33.25;29.75;;;;;13.09;37.79;101652.47;146595;763;47010;-70
2022/01/28 09:31:43;;;;;;;;;43.50;34.00;;;;;13.21;37.47;101644.44;146599;721;46021;-70
2022/01/28 09:34:35;;;;;;;;;44.75;32.75;;;;;13.27;37.41;101647.41;146596;593;47010;-70
2022/01/28 09:37:27;;;;;;;;;43.00;34.00;;;;;13.37;37.64;101646.19;146600;805;46020;-70
2022/01/28 09:40:20;;;;;;;;;43.50;33.25;;;;;13.53;37.73;101641.00;146599;564;46016;-70
2022/01/28 09:43:13;;;;;;;;;27.00;26.00;;;;;13.73;36.24;101641.16;146600;565;46008;-69
2022/01/28 09:46:06;;;;;;;;;35.00;29.75;;;;;13.83;36.67;101639.12;146598;792;47012;-69
2022/01/28 09:48:59;;;;;;;;;33.75;30.25;;;;;13.85;36.80;101634.00;146607;566;46008;-70
2022/01/28 09:51:52;;;;;;;;;31.50;24.50;;;;;13.88;35.03;101638.47;146598;617;46035;-68
2022/01/28 09:54:46;;;;;;;;;29.00;26.75;;;;;13.81;36.70;101629.44;146604;629;46021;-70
2022/01/28 09:57:38;;;;;;;;;33.50;28.75;;;;;13.85;37.06;101634.88;146605;760;46010;-70
2022/01/28 10:00:31;;;;;;;;;35.75;30.00;;;;;13.96;36.25;101626.75;146604;633;46008;-71
2022/01/28 10:03:24;;;;;;;;;31.75;28.50;;;;;13.97;36.36;101619.00;146603;611;45917;-72
2022/01/28 10:06:16;;;;;;;;;34.25;29.50;;;;;13.97;35.72;101628.53;146606;715;46020;-71
2022/01/28 10:09:16;;;;;;;;;33.25;29.50;;;;;13.99;37.31;101619.09;146604;627;46010;-70
2022/01/28 10:12:26;;;;;;;;;38.00;31.25;;;;;14.03;37.50;101608.88;146606;676;46020;-72
2022/01/28 10:15:28;;;;;;;;;38.25;31.00;;;;;14.11;36.36;101598.81;146601;572;47010;-74
2022/01/28 10:18:20;;;;;;;;;35.75;31.00;;;;;14.12;36.80;101595.41;146604;653;46008;-72
2022/01/28 10:21:28;;;;;;;;;38.00;31.75;;;;;14.19;37.22;101589.69;146602;599;46016;-72
2022/01/28 10:24:28;;;;;;;;;39.75;33.75;;;;;14.27;37.01;101583.16;146603;572;46008;-72
2022/01/28 10:27:23;;;;;;;;;35.00;31.00;;;;;14.37;36.08;101579.28;146598;591;46016;-72
2022/01/28 10:30:16;;;;;;;;;43.50;33.75;;;;;14.42;35.77;101569.94;146605;565;46020;-71
2022/01/28 10:33:26;;;;;;;;;32.00;28.50;;;;;14.48;36.80;101556.31;146599;590;47010;-67
2022/01/28 10:36:27;;;;;;;;;28.00;26.50;;;;;14.57;36.57;101567.22;146604;573;46020;-70
2022/01/28 10:39:26;;;;;;;;;34.00;29.00;;;;;14.66;36.42;101548.50;146600;617;46017;-70
2022/01/28 10:42:51;;;;;;;;;32.25;27.75;;;;;14.75;36.20;101547.22;146605;677;46020;-70
2022/01/28 10:45:45;;;;;;;;;26.00;24.75;;;;;14.83;34.79;101544.06;146598;566;47011;-71
2022/01/28 10:48:50;;;;;;;;;28.25;26.50;;;;;14.82;34.72;101531.84;146601;579;46020;-70
2022/01/28 10:51:51;;;;;;;;;25.25;23.50;;;;;14.89;36.24;101534.84;146597;613;46033;-71
2022/01/28 10:54:44;;;;;;;;;30.50;29.25;;;;;15.07;34.99;101532.16;146604;613;45021;-72
2022/01/28 10:57:36;;;;;;;;;26.75;23.25;;;;;15.22;35.06;101524.13;146598;586;46016;-70
2022/01/28 11:00:32;;;;;;;;;26.00;21.75;;;;;15.32;35.15;101521.09;146601;661;47008;-72
2022/01/28 11:03:28;;;;;;;;;43.50;35.00;;;;;15.39;35.00;101517.03;146598;628;46010;-71
2022/01/28 11:06:21;;;;;;;;;34.50;25.25;;;;;14.48;33.55;101342.31;146599;577;47008;-71
2022/01/28 11:09:15;;;;;;;;;19.00;18.50;;;;;15.33;34.39;101494.16;146597;608;47010;-71
2022/01/28 11:12:08;;;;;;;;;21.25;19.50;;;;;15.35;33.52;101505.56;146601;654;48020;-72
2022/01/28 11:15:01;;;;;;;;;21.50;17.25;;;;;15.39;34.20;101499.66;146600;605;46016;-71
2022/01/28 11:17:55;;;;;;;;;22.25;21.25;;;;;15.47;33.60;101493.03;146601;595;46020;-72
2022/01/28 11:21:06;;;;;;;;;21.75;19.00;;;;;15.56;35.03;101489.91;146595;578;47010;-71
2022/01/28 11:24:13;;;;;;;;;22.50;21.25;;;;;15.66;34.43;101492.09;146601;588;46008;-71
2022/01/28 11:27:16;;;;;;;;;22.00;20.50;;;;;15.73;34.28;101481.94;146596;683;46016;-72
2022/01/28 11:30:28;;;;;;;;;19.50;17.75;;;;;15.81;34.26;101484.03;146598;565;46021;-73
2022/01/28 11:33:22;;;;;;;;;19.25;17.75;;;;;15.83;32.74;101476.28;146598;574;46016;-71
2022/01/28 11:36:14;;;;;;;;;27.50;23.50;;;;;15.83;34.58;101471.94;146601;565;46021;-70
2022/01/28 11:39:23;;;;;;;;;18.00;16.50;;;;;15.86;34.99;101465.94;146594;564;47010;-72
2022/01/28 11:42:31;;;;;;;;;20.00;16.00;;;;;15.85;34.10;101461.53;146601;610;46008;-72
2022/01/28 11:45:24;;;;;;;;;15.75;14.00;;;;;15.81;35.32;101468.34;146604;575;46010;-71
2022/01/28 11:48:16;;;;;;;;;16.00;14.25;;;;;15.63;35.25;101457.97;146604;587;46025;-70
2022/01/28 11:51:08;;;;;;;;;14.50;14.00;;;;;15.32;35.17;101457.50;146602;624;46011;-71
2022/01/28 11:54:11;;;;;;;;;24.25;19.75;;;;;14.98;36.73;101458.59;146602;658;46029;-73
2022/01/28 11:57:25;;;;;;;;;12.00;11.00;;;;;13.56;36.33;101260.75;146598;597;46016;-69
2022/01/28 12:00:29;;;;;;;;;15.75;15.75;;;;;14.52;36.90;101446.09;146601;565;46021;-70
2022/01/28 12:03:32;;;;;;;;;24.75;19.25;;;;;14.26;36.87;101447.41;146601;577;46016;-70
2022/01/28 12:06:25;;;;;;;;;15.00;13.50;;;;;13.97;37.08;101441.69;146605;573;46008;-71
2022/01/28 12:09:17;;;;;;;;;16.50;15.00;;;;;13.72;37.69;101433.47;146601;589;46010;-71
2022/01/28 12:12:12;;;;;;;;;15.00;15.00;;;;;13.58;37.81;101425.88;146605;600;46008;-72
2022/01/28 12:15:10;;;;;;;;;20.50;17.50;;;;;13.65;38.22;101420.97;146602;629;46016;-71
2022/01/28 12:18:14;;;;;;;;;19.25;16.50;;;;;13.83;37.15;101429.66;146602;584;47008;-70
2022/01/28 12:21:06;;;;;;;;;13.50;12.75;;;;;13.86;37.46;101419.41;146600;724;46017;-72
2022/01/28 12:24:18;;;;;;;;;18.75;17.75;;;;;13.85;37.77;101404.59;146606;611;46008;-71
2022/01/28 12:27:13;;;;;;;;;15.50;14.00;;;;;13.95;38.10;101412.03;146599;613;46917;-71
2022/01/28 12:30:17;;;;;;;;;15.25;15.00;;;;;14.01;38.14;101408.81;146602;591;46008;-71
2022/01/28 12:33:09;;;;;;;;;14.50;13.75;;;;;14.02;37.79;101402.81;146603;620;46010;-72
2022/01/28 12:36:03;;;;;;;;;17.75;16.25;;;;;14.05;38.12;101403.84;146606;599;46009;-71
2022/01/28 12:39:06;;;;;;;;;19.00;16.25;;;;;14.23;38.70;101390.75;146602;576;46016;-71
2022/01/28 12:42:06;;;;;;;;;18.50;15.00;;;;;14.57;37.56;101389.75;146606;667;46020;-71
2022/01/28 12:45:01;;;;;;;;;9.75;9.75;;;;;14.83;37.48;101383.13;146602;595;46010;-71
2022/01/28 12:47:53;;;;;;;;;13.50;12.25;;;;;14.92;37.01;101385.22;146603;711;46012;-71
2022/01/28 12:50:53;;;;;;;;;10.75;8.75;;;;;14.97;37.47;101379.37;146599;583;47012;-71
2022/01/28 12:53:54;;;;;;;;;16.00;15.00;;;;;14.81;36.78;101321.22;146605;589;47008;-71
2022/01/28 12:56:46;;;;;;;;;13.25;12.00;;;;;15.22;36.85;101354.31;146600;575;46016;-71
2022/01/28 12:59:38;;;;;;;;;14.00;13.00;;;;;15.37;36.96;101344.50;146601;573;46008;-72
2022/01/28 13:02:37;;;;;;;;;20.25;18.25;;;;;15.40;36.20;101347.25;146603;625;46010;-71
2022/01/28 13:05:37;;;;;;;;;13.75;12.50;;;;;15.48;35.52;101347.53;146606;602;46021;-71
2022/01/28 13:08:29;;;;;;;;;15.75;13.25;;;;;15.58;36.22;101336.66;146599;643;46016;-71
2022/01/28 13:11:23;;;;;;;;;25.00;20.50;;;;;15.66;35.45;101334.34;146604;683;46020;-71
2022/01/28 13:14:19;;;;;;;;;16.00;13.25;;;;;15.62;35.45;101337.69;146601;590;46010;-70
2022/01/28 13:17:11;;;;;;;;;13.75;13.00;;;;;15.43;35.70;101339.53;146604;593;46020;-71
2022/01/28 13:20:10;;;;;;;;;18.25;14.00;;;;;15.38;35.61;101337.56;146603;612;45917;-70
2022/01/28 13:23:02;;;;;;;;;17.00;15.00;;;;;15.41;35.96;101337.69;146606;582;46021;-70
2022/01/28 13:26:10;;;;;;;;;14.25;11.00;;;;;15.32;35.93;101343.41;146599;579;46016;-70
2022/01/28 13:29:13;;;;;;;;;15.00;12.25;;;;;15.05;36.08;101345.78;146604;607;46008;-70
2022/01/28 13:32:08;;;;;;;;;14.75;14.00;;;;;14.76;36.22;101347.97;146601;582;46016;-70
2022/01/28 13:35:02;;;;;;;;;19.25;16.50;;;;;14.77;37.17;101341.06;146605;570;46009;-71
2022/01/28 13:38:02;;;;;;;;;18.00;12.75;;;;;14.88;37.78;101341.53;146604;630;46010;-71
2022/01/28 13:40:54;;;;;;;;;20.75;18.00;;;;;15.01;36.44;101346.44;146606;589;46020;-70
2022/01/28 13:43:46;;;;;;;;;18.25;15.75;;;;;15.23;37.20;101343.94;146602;605;46016;-70
2022/01/28 13:46:38;;;;;;;;;14.50;10.75;;;;;15.23;36.91;101348.25;146607;654;46008;-71
2022/01/28 13:49:39;;;;;;;;;14.25;12.50;;;;;15.22;35.69;101351.69;146597;587;46017;-70
2022/01/28 13:52:48;;;;;;;;;21.75;18.25;;;;;14.22;36.96;101192.47;146605;563;46020;-70
2022/01/28 13:55:41;;;;;;;;;12.50;10.00;;;;;14.92;36.56;101351.25;146602;595;47010;-70
2022/01/28 13:58:46;;;;;;;;;15.50;14.75;;;;;14.87;36.62;101350.19;146604;584;46021;-71
2022/01/28 14:01:39;;;;;;;;;14.25;13.25;;;;;14.87;36.51;101342.37;146604;702;46010;-70
2022/01/28 14:04:35;;;;;;;;;14.75;12.75;;;;;14.77;35.60;101328.91;146605;590;47008;-70
2022/01/28 14:07:30;;;;;;;;;15.75;14.25;;;;;14.74;36.77;101335.72;146598;595;47010;-70
2022/01/28 14:10:21;;;;;;;;;11.75;11.75;;;;;14.62;35.64;101323.00;146604;576;46020;-71
2022/01/28 14:13:24;;;;;;;;;22.25;21.25;;;;;14.43;37.25;101317.75;146605;642;46918;-70
2022/01/28 14:16:16;;;;;;;;;22.00;22.00;;;;;14.23;37.14;101311.63;146606;587;46020;-71
2022/01/28 14:19:10;;;;;;;;;17.50;17.50;;;;;14.11;37.98;101314.56;146600;567;46017;-71
2022/01/28 14:22:06;;;;;;;;;19.25;17.75;;;;;14.07;37.65;101316.13;146604;711;47008;-72
2022/01/28 14:24:57;;;;;;;;;26.75;22.75;;;;;14.09;38.46;101318.81;146599;638;46012;-70
2022/01/28 14:28:24;;;;;;;;;24.00;22.75;;;;;14.14;38.61;101319.03;146605;590;46008;-70
2022/01/28 14:31:13;;;;;;;;;20.75;18.75;;;;;14.17;39.02;101316.56;146602;582;46016;-71
2022/01/28 14:34:06;;;;;;;;;22.75;19.75;;;;;14.16;38.74;101315.66;146606;582;46020;-70
2022/01/28 14:36:58;;;;;;;;;27.75;26.75;;;;;14.09;38.54;101316.22;146602;574;47010;-72
2022/01/28 14:39:51;;;;;;;;;20.50;17.75;;;;;13.95;38.05;101330.31;146607;606;47008;-71